Time;durP1;ratioP1;P1;durP2;ratioP2;P2;SDS_P1;SDS_P2;PMS_P1;PMS_P2;Temp;Humidity;BMP_temperature;BMP_pressure;BME280_temperature;BME280_humidity;BME280_pressure;Samples;Min_cycle;Max_cycle;Signal;HPM_P1;HPM_P2
2020/12/26 00:00:46;;;;;;;66.73;21.13;;;-0.30;99.90;;;0.42;97.38;98655.25;5202996;28;20682;-76
2020/12/26 00:03:19;;;;;;;195.20;26.97;;;-0.40;99.90;;;0.43;97.38;98657.94;5203033;28;20587;-78
2020/12/26 00:05:51;;;;;;;59.63;20.37;;;-0.30;99.90;;;0.36;97.13;98655.47;5203537;28;20222;-78
2020/12/26 00:08:23;;;;;;;100.97;21.47;;;-0.40;99.90;;;0.37;97.05;98647.22;5203599;28;20206;-77
2020/12/26 00:10:55;;;;;;;34.83;19.83;;;-0.40;99.90;;;0.45;97.60;98643.00;5197759;28;20730;-77
2020/12/26 00:13:27;;;;;;;29.73;20.67;;;-0.30;99.90;;;0.48;97.50;98635.78;5205703;28;20673;-76
2020/12/26 00:15:59;;;;;;;59.80;19.57;;;-0.30;99.90;;;0.50;97.60;98641.00;5196147;28;20201;-77
2020/12/26 00:18:33;;;;;;;22.40;18.57;;;-0.30;99.90;;;0.49;97.84;98646.72;5203084;28;20566;-76
2020/12/26 00:21:06;;;;;;;36.70;19.23;;;-0.30;99.90;;;0.55;97.81;98647.41;5201951;28;20298;-77
2020/12/26 00:23:39;;;;;;;43.03;19.13;;;-0.20;99.90;;;0.52;97.20;98647.09;5202842;28;20218;-77
2020/12/26 00:26:15;;;;;;;25.53;18.90;;;-0.30;99.90;;;0.79;97.52;98637.47;5204571;28;20232;-77
2020/12/26 00:28:47;;;;;;;46.63;19.13;;;-0.20;99.90;;;0.53;95.12;98639.69;5204454;28;20194;-77
2020/12/26 00:31:19;;;;;;;76.47;19.50;;;-0.30;99.90;;;0.28;95.26;98640.28;5203938;28;20613;-78
2020/12/26 00:33:52;;;;;;;34.10;16.70;;;-0.60;99.90;;;0.27;95.70;98639.38;5204751;28;20282;-78
2020/12/26 00:36:24;;;;;;;19.50;16.40;;;-0.60;99.90;;;0.36;96.25;98640.38;5209035;28;20213;-76
2020/12/26 00:38:57;;;;;;;20.97;16.57;;;-0.50;99.90;;;0.32;96.57;98630.72;5210351;28;20190;-78
2020/12/26 00:41:29;;;;;;;26.57;17.60;;;-0.50;99.90;;;0.39;96.55;98630.66;5209637;28;20220;-77
2020/12/26 00:44:01;;;;;;;27.70;16.83;;;-0.40;99.90;;;0.39;96.69;98634.78;5209426;28;20229;-77
2020/12/26 00:46:33;;;;;;;18.97;15.83;;;-0.50;99.90;;;0.44;96.10;98634.56;5207391;28;20215;-77
2020/12/26 00:49:06;;;;;;;21.93;16.53;;;-0.40;99.90;;;0.42;96.42;98630.97;5207437;28;20208;-77
2020/12/26 00:51:38;;;;;;;17.80;15.87;;;-0.50;99.90;;;0.33;95.32;98635.03;5206404;28;20221;-77
2020/12/26 00:54:10;;;;;;;19.70;16.13;;;-0.60;99.90;;;0.30;96.02;98629.66;5207292;28;20200;-77
2020/12/26 00:56:42;;;;;;;21.67;15.60;;;-0.50;99.90;;;0.20;95.42;98627.78;5209899;28;20194;-78
2020/12/26 00:59:14;;;;;;;42.10;17.23;;;-0.60;99.90;;;0.23;95.94;98634.75;5209401;28;20201;-77
2020/12/26 01:01:46;;;;;;;24.83;16.37;;;-0.70;99.90;;;0.21;95.83;98649.66;5210624;28;20574;-78
2020/12/26 01:04:19;;;;;;;17.73;15.53;;;-0.70;99.90;;;0.06;95.27;98637.94;5209236;28;20289;-78
2020/12/26 01:06:55;;;;;;;35.07;17.83;;;-0.80;99.90;;;0.03;95.14;98644.22;5209602;28;20228;-76
2020/12/26 01:09:27;;;;;;;16.47;14.43;;;-0.80;99.90;;;-0.02;95.07;98644.63;5210411;28;20233;-78
2020/12/26 01:11:59;;;;;;;19.13;16.23;;;-0.90;99.90;;;0.09;96.38;98639.91;5213672;28;20300;-77
2020/12/26 01:14:31;;;;;;;24.00;15.97;;;-0.70;99.90;;;0.10;96.06;98635.03;5207368;28;20290;-76
2020/12/26 01:17:03;;;;;;;19.80;15.50;;;-0.70;99.90;;;0.16;96.20;98649.88;5206257;28;20572;-77
2020/12/26 01:19:36;;;;;;;19.23;15.77;;;-0.70;99.90;;;0.20;96.92;98652.00;5207300;28;20230;-76
2020/12/26 01:22:08;;;;;;;20.30;15.80;;;-0.60;99.90;;;0.16;96.21;98655.81;5207850;28;20310;-77
2020/12/26 01:24:42;;;;;;;18.47;15.77;;;-0.70;99.90;;;0.14;96.50;98666.41;5206451;28;20693;-77
2020/12/26 01:27:14;;;;;;;41.93;18.27;;;-0.60;99.90;;;0.06;96.06;98662.16;5207451;28;20312;-77
2020/12/26 01:29:50;;;;;;;19.50;16.40;;;-0.70;99.90;;;0.13;96.46;98670.53;5198363;28;20646;-77
2020/12/26 01:32:27;;;;;;;21.90;17.67;;;-0.60;99.90;;;0.20;96.84;98672.09;5206359;28;20222;-77
2020/12/26 01:35:00;;;;;;;22.93;18.57;;;-0.60;99.90;;;0.24;97.01;98676.75;5204770;28;20197;-76
2020/12/26 01:37:32;;;;;;;22.57;17.47;;;-0.60;99.90;;;0.25;97.21;98686.06;5206153;28;20207;-77
2020/12/26 01:40:10;;;;;;;28.70;17.60;;;-0.60;99.90;;;0.27;97.29;98679.59;5206867;28;20292;-76
2020/12/26 01:42:42;;;;;;;22.33;17.60;;;-0.60;99.90;;;0.20;97.34;98684.66;5208217;28;20646;-77
2020/12/26 01:45:14;;;;;;;29.60;17.60;;;-0.60;99.90;;;0.29;97.09;98678.16;5207050;28;20281;-77
2020/12/26 01:47:47;;;;;;;25.10;16.67;;;-0.60;99.90;;;0.20;95.86;98693.13;5205440;28;20221;-76
2020/12/26 01:50:22;;;;;;;25.80;16.77;;;-0.80;99.90;;;0.21;95.40;98689.00;5204471;28;20202;-77
2020/12/26 01:52:54;;;;;;;23.47;17.33;;;-0.80;99.90;;;0.38;95.79;98688.34;5207531;28;20201;-77
2020/12/26 01:55:27;;;;;;;22.57;18.07;;;-0.80;99.90;;;0.38;94.98;98689.22;5206947;28;20201;-78
2020/12/26 01:57:59;;;;;;;22.77;17.97;;;-0.80;99.90;;;0.34;94.75;98691.22;5207066;28;20194;-77
2020/12/26 02:00:31;;;;;;;20.80;17.27;;;-0.80;99.90;;;0.39;94.10;98693.50;5208470;28;20282;-78
2020/12/26 02:03:03;;;;;;;22.40;17.83;;;-0.80;99.90;;;0.41;94.91;98698.72;5206347;28;20915;-77
2020/12/26 02:05:36;;;;;;;18.67;15.87;;;-0.70;99.90;;;0.37;94.23;98706.63;5207750;28;20228;-77
2020/12/26 02:08:09;;;;;;;19.77;16.43;;;-0.70;99.90;;;0.49;94.79;98699.53;5208241;28;20199;-78
2020/12/26 02:10:43;;;;;;;74.47;18.97;;;-0.50;99.90;;;0.31;93.27;98705.97;5211358;28;20775;-77
2020/12/26 02:13:16;;;;;;;20.70;16.33;;;-0.70;99.90;;;0.41;93.93;98714.69;5206067;28;20256;-77
2020/12/26 02:16:05;;;;;;;47.07;17.57;;;-0.70;99.90;;;0.42;92.95;98713.97;5205616;28;20290;-77
2020/12/26 02:18:37;;;;;;;31.70;16.67;;;-0.70;99.90;;;0.36;93.58;98709.88;5205531;28;20202;-77
2020/12/26 02:21:10;;;;;;;28.27;15.57;;;-0.70;99.90;;;0.26;92.56;98717.13;5206716;28;20225;-78
2020/12/26 02:23:44;;;;;;;19.90;16.17;;;-0.80;99.90;;;0.26;93.88;98713.03;5205443;28;20222;-78
2020/12/26 02:26:27;;;;;;;18.70;16.57;;;-0.70;99.90;;;0.26;94.11;98718.06;5209896;28;20682;-77
2020/12/26 02:28:59;;;;;;;20.67;15.80;;;-0.80;99.90;;;0.29;94.05;98718.38;5208604;28;20607;-76
2020/12/26 02:31:32;;;;;;;26.87;16.43;;;-0.80;99.90;;;0.33;94.31;98715.47;5197501;28;20294;-78
2020/12/26 02:34:04;;;;;;;33.33;15.97;;;-0.80;99.90;;;0.28;93.41;98719.09;5205581;28;20217;-78
2020/12/26 02:36:37;;;;;;;23.40;16.17;;;-0.80;99.90;;;0.25;94.24;98725.41;5209207;28;20198;-77
2020/12/26 02:39:10;;;;;;;22.13;16.20;;;-0.70;99.90;;;0.28;94.59;98721.59;5204642;28;20657;-77
2020/12/26 02:41:42;;;;;;;23.27;16.90;;;-0.70;99.90;;;0.21;93.55;98719.16;5208542;28;20253;-77
2020/12/26 02:44:15;;;;;;;21.33;16.83;;;-0.70;99.90;;;0.26;94.15;98723.06;5207046;28;20190;-77
2020/12/26 02:46:50;;;;;;;25.13;16.30;;;-0.70;99.90;;;0.16;93.26;98720.25;5197513;28;20222;-79
2020/12/26 02:49:22;;;;;;;52.57;17.17;;;-0.70;99.90;;;-0.03;91.20;98718.25;5209341;28;20289;-78
2020/12/26 02:51:54;;;;;;;20.90;16.97;;;-0.90;99.90;;;0.06;94.06;98707.38;5213566;28;20221;-77
2020/12/26 02:54:27;;;;;;;19.93;16.60;;;-0.70;99.90;;;0.14;94.23;98710.06;5212320;28;20292;-78
2020/12/26 02:56:59;;;;;;;25.57;17.43;;;-0.60;99.90;;;0.18;94.34;98703.75;5205930;28;20280;-79
2020/12/26 02:59:31;;;;;;;21.67;17.53;;;-0.70;99.90;;;0.20;93.86;98713.25;5206223;28;20280;-79
2020/12/26 03:02:04;;;;;;;19.73;16.97;;;-0.70;99.90;;;0.12;93.47;98708.09;5208632;28;20746;-78
2020/12/26 03:04:36;;;;;;;20.63;17.33;;;-0.70;99.90;;;0.18;94.02;98719.72;5206515;28;20785;-77
2020/12/26 03:07:08;;;;;;;18.43;16.43;;;-0.60;99.90;;;0.17;94.85;98717.94;5209400;28;20312;-79
2020/12/26 03:09:42;;;;;;;20.67;18.03;;;-0.60;99.90;;;0.11;93.97;98716.34;5206579;28;20197;-78
2020/12/26 03:12:14;;;;;;;19.27;16.27;;;-0.70;99.90;;;0.14;94.25;98716.66;5207729;28;20301;-77
2020/12/26 03:14:47;;;;;;;20.13;16.07;;;-0.70;99.90;;;0.15;94.55;98723.50;5201984;28;20209;-78
2020/12/26 03:17:19;;;;;;;19.90;16.17;;;-0.60;99.90;;;0.23;95.12;98725.25;5217981;28;20206;-78
2020/12/26 03:19:51;;;;;;;19.33;15.30;;;-0.50;99.90;;;0.26;94.46;98723.06;5207536;28;20232;-78
2020/12/26 03:22:23;;;;;;;17.93;15.53;;;-0.60;99.90;;;0.17;93.84;98725.47;5205884;28;20255;-78
2020/12/26 03:24:56;;;;;;;18.53;15.87;;;-0.70;99.90;;;0.22;94.58;98741.03;5206203;28;20653;-78
2020/12/26 03:27:28;;;;;;;18.60;15.97;;;-0.70;99.90;;;0.21;94.54;98740.16;5203937;28;20214;-75
2020/12/26 03:30:00;;;;;;;18.93;16.63;;;-0.60;99.90;;;0.25;94.76;98738.88;5208462;28;20229;-77
2020/12/26 03:32:33;;;;;;;21.13;18.20;;;-0.60;99.90;;;0.31;94.77;98729.47;5205292;28;20253;-78
2020/12/26 03:35:06;;;;;;;19.70;17.60;;;-0.60;99.90;;;0.38;94.74;98731.06;5208358;28;20700;-78
2020/12/26 03:37:38;;;;;;;18.63;16.57;;;-0.60;99.90;;;0.32;93.98;98733.81;5210176;28;20202;-78
2020/12/26 03:40:11;;;;;;;21.67;17.17;;;-0.60;99.90;;;0.20;93.28;98745.00;5206008;28;20198;-78
2020/12/26 03:42:43;;;;;;;18.77;16.50;;;-0.60;99.90;;;0.26;94.49;98748.22;5209853;28;20204;-78
2020/12/26 03:45:16;;;;;;;20.37;18.17;;;-0.60;99.90;;;0.28;94.30;98750.88;5206363;28;20407;-78
2020/12/26 03:47:48;;;;;;;19.13;16.47;;;-0.50;99.90;;;0.37;94.69;98741.84;5208191;28;20408;-77
2020/12/26 03:50:21;;;;;;;20.13;17.70;;;-0.60;99.90;;;0.36;94.32;98751.00;5203623;28;20262;-77
2020/12/26 03:52:54;;;;;;;23.20;18.13;;;-0.50;99.90;;;0.28;94.37;98746.75;5209007;28;20204;-79
2020/12/26 03:55:28;;;;;;;21.90;17.53;;;-0.50;99.90;;;0.31;94.25;98747.06;5210198;28;20280;-79
2020/12/26 03:58:00;;;;;;;20.77;18.03;;;-0.50;99.90;;;0.27;93.51;98749.09;5205372;28;20198;-77
2020/12/26 04:00:32;;;;;;;20.07;17.10;;;-0.50;99.90;;;0.36;94.72;98745.97;5203825;28;20232;-77
2020/12/26 04:03:04;;;;;;;20.07;17.23;;;-0.40;99.90;;;0.43;95.00;98762.66;5207816;28;20204;-78
2020/12/26 04:05:36;;;;;;;20.70;17.87;;;-0.30;99.90;;;0.44;94.56;98760.28;5207285;28;20292;-77
2020/12/26 04:08:08;;;;;;;20.90;17.80;;;-0.30;99.90;;;0.45;94.37;98762.06;5207708;28;20219;-77
2020/12/26 04:10:43;;;;;;;21.43;18.63;;;-0.40;99.90;;;0.53;94.44;98759.50;5213350;28;20223;-77
2020/12/26 04:13:15;;;;;;;20.70;17.93;;;-0.30;99.90;;;0.56;94.23;98760.75;5212003;28;20238;-78
2020/12/26 04:15:47;;;;;;;20.57;18.17;;;-0.30;99.90;;;0.69;93.84;98752.94;5210218;28;20750;-78
2020/12/26 04:18:19;;;;;;;19.63;16.90;;;-0.30;99.90;;;0.68;93.11;98753.63;5209328;28;20640;-77
2020/12/26 04:20:51;;;;;;;17.83;15.93;;;-0.30;99.90;;;0.57;92.48;98757.53;5207497;28;20218;-79
2020/12/26 04:23:23;;;;;;;18.30;15.63;;;-0.20;99.90;;;0.51;93.13;98756.81;5211968;28;20288;-77
2020/12/26 04:25:56;;;;;;;16.23;14.53;;;-0.30;99.90;;;0.54;93.48;98754.63;5208005;28;20574;-78
2020/12/26 04:28:29;;;;;;;17.43;15.13;;;-0.30;99.90;;;0.56;93.68;98754.81;5214079;28;20214;-78
2020/12/26 04:31:02;;;;;;;17.57;15.77;;;-0.20;99.90;;;0.50;93.47;98756.66;5212842;28;20223;-77
2020/12/26 04:33:34;;;;;;;17.00;15.30;;;-0.30;99.90;;;0.38;92.55;98747.03;5210610;28;20252;-78
2020/12/26 04:36:06;;;;;;;15.47;13.90;;;-0.40;99.90;;;0.49;93.63;98748.25;5207534;28;20192;-78
2020/12/26 04:38:38;;;;;;;16.87;15.27;;;-0.40;99.90;;;0.43;93.71;98743.44;5210475;28;20653;-77
2020/12/26 04:41:12;;;;;;;16.27;14.57;;;-0.30;99.90;;;0.42;93.45;98750.78;5206900;28;20229;-77
2020/12/26 04:43:44;;;;;;;17.80;14.67;;;-0.40;99.90;;;0.30;92.06;98740.28;5211379;28;20294;-77
2020/12/26 04:46:19;;;;;;;15.80;14.30;;;-0.40;99.90;;;0.35;93.81;98753.38;5207834;28;20253;-79
2020/12/26 04:49:04;;;;;;;17.77;15.90;;;-0.40;99.90;;;0.43;93.53;98748.44;5209510;28;20650;-76
2020/12/26 04:51:39;;;;;;;16.77;15.07;;;-0.30;99.90;;;0.36;93.70;98745.97;5203723;28;20253;-77
2020/12/26 04:54:23;;;;;;;17.10;15.30;;;-0.40;99.90;;;0.34;93.98;98749.03;5214260;28;20206;-77
2020/12/26 04:56:57;;;;;;;17.20;15.40;;;-0.40;99.90;;;0.32;93.79;98743.88;5210723;28;20201;-76
2020/12/26 04:59:29;;;;;;;17.17;15.37;;;-0.40;99.90;;;0.32;94.21;98741.34;5213388;28;20209;-78
2020/12/26 05:02:02;;;;;;;16.70;14.87;;;-0.40;99.90;;;0.29;93.97;98748.56;5211440;28;20310;-78
2020/12/26 05:04:34;;;;;;;16.60;14.90;;;-0.40;99.90;;;0.30;94.24;98754.47;5210394;28;20201;-78
2020/12/26 05:07:06;;;;;;;15.50;13.57;;;-0.40;99.90;;;0.32;94.92;98758.06;5208362;28;20258;-77
2020/12/26 05:09:39;;;;;;;16.27;14.53;;;-0.40;99.90;;;0.23;93.39;98762.97;5208768;28;20214;-78
2020/12/26 05:12:11;;;;;;;17.37;15.57;;;-0.40;99.90;;;0.34;94.39;98757.47;5213232;28;20220;-77
2020/12/26 05:14:44;;;;;;;16.03;14.43;;;-0.30;99.90;;;0.42;94.57;98765.88;5190154;28;20217;-78
2020/12/26 05:17:17;;;;;;;15.60;14.00;;;-0.30;99.90;;;0.44;94.40;98762.81;5210373;28;20205;-77
2020/12/26 05:19:49;;;;;;;16.43;14.63;;;-0.30;99.90;;;0.52;94.24;98771.19;5206819;28;20572;-77
2020/12/26 05:22:33;;;;;;;18.73;15.97;;;-0.20;99.90;;;0.63;94.38;98767.31;5210714;28;20580;-77
2020/12/26 05:25:07;;;;;;;19.20;16.97;;;-0.20;99.90;;;0.66;92.33;98768.56;5207773;28;20264;-78
2020/12/26 05:27:40;;;;;;;18.10;15.83;;;-0.30;99.90;;;0.54;91.87;98758.78;5209677;28;20247;-77
2020/12/26 05:30:16;;;;;;;17.67;15.83;;;-0.30;99.90;;;0.58;92.96;98768.47;5208724;28;20227;-77
2020/12/26 05:32:49;;;;;;;18.33;16.07;;;-0.20;99.90;;;0.66;93.16;98770.22;5210614;28;20601;-78
2020/12/26 05:35:22;;;;;;;19.10;17.10;;;-0.20;99.90;;;0.62;92.67;98771.47;5203666;28;20670;-78
2020/12/26 05:38:16;;;;;;;18.07;16.17;;;-0.20;99.90;;;0.87;92.09;98770.00;5208709;28;20199;-78
2020/12/26 05:40:51;;;;;;;16.63;14.97;;;-0.20;99.90;;;0.77;90.89;98772.25;5211028;28;20231;-77
2020/12/26 05:43:28;;;;;;;17.83;15.67;;;-0.20;99.90;;;0.79;91.94;98777.47;5210077;28;20219;-79
2020/12/26 05:46:00;;;;;;;16.37;14.67;;;-0.10;99.90;;;0.73;92.12;98780.19;5211614;28;20237;-78
2020/12/26 05:48:33;;;;;;;16.23;14.53;;;-0.20;99.90;;;0.80;91.90;98791.81;5204722;28;20195;-78
2020/12/26 05:51:05;;;;;;;16.23;14.43;;;-0.10;99.90;;;0.71;92.15;98786.66;5208430;28;20254;-77
2020/12/26 05:53:40;;;;;;;17.97;16.07;;;-0.10;99.90;;;0.65;91.96;98791.03;5211265;28;20210;-78
2020/12/26 05:56:18;;;;;;;18.07;16.17;;;-0.10;99.90;;;0.75;93.04;98786.31;5210414;28;20281;-79
2020/12/26 05:58:51;;;;;;;17.07;15.33;;;0.00;99.90;;;0.79;92.98;98792.56;5208929;28;20198;-78
2020/12/26 06:01:23;;;;;;;18.50;16.50;;;0.10;99.90;;;0.69;92.37;98790.66;5207223;28;20219;-77
2020/12/26 06:04:08;;;;;;;19.03;16.27;;;0.00;99.90;;;0.68;92.21;98784.72;5187002;28;20208;-78
2020/12/26 06:06:41;;;;;;;17.13;14.97;;;-0.10;99.90;;;0.65;92.08;98780.97;5207025;28;20247;-77
2020/12/26 06:09:13;;;;;;;17.23;15.43;;;-0.10;99.90;;;0.66;92.58;98781.16;5206941;28;20231;-77
2020/12/26 06:11:47;;;;;;;19.10;16.57;;;-0.10;99.90;;;0.68;92.45;98786.34;5207513;28;20242;-78
2020/12/26 06:14:20;;;;;;;19.90;16.73;;;-0.10;99.90;;;0.54;91.32;98781.41;5208698;28;20197;-78
2020/12/26 06:16:58;;;;;;;19.40;16.80;;;-0.20;99.90;;;0.51;92.13;98786.09;5206557;28;20281;-77
2020/12/26 06:19:30;;;;;;;22.80;17.67;;;-0.20;99.90;;;0.57;92.99;98807.81;5205179;28;20191;-78
2020/12/26 06:22:02;;;;;;;21.17;18.00;;;-0.10;99.90;;;0.59;92.52;98802.94;5205984;28;20214;-78
2020/12/26 06:24:36;;;;;;;19.77;17.67;;;-0.10;99.90;;;0.60;93.20;98804.72;5205118;28;20208;-77
2020/12/26 06:27:13;;;;;;;20.60;17.80;;;-0.10;99.90;;;0.67;93.71;98804.69;5205188;28;20218;-78
2020/12/26 06:29:48;;;;;;;20.77;18.60;;;-0.10;99.90;;;0.66;93.64;98797.88;5205125;28;20280;-78
2020/12/26 06:32:21;;;;;;;21.93;19.20;;;0.00;99.90;;;0.69;93.19;98798.22;5204149;28;20313;-77
2020/12/26 06:34:54;;;;;;;21.70;19.47;;;0.00;99.90;;;0.71;93.46;98791.69;5204658;28;20281;-78
2020/12/26 06:37:26;;;;;;;21.40;18.77;;;0.00;99.90;;;0.71;93.49;98791.69;5209250;28;20715;-78
2020/12/26 06:39:59;;;;;;;20.83;18.70;;;0.00;99.90;;;0.69;92.26;98790.66;5206283;28;20215;-78
2020/12/26 06:42:40;;;;;;;22.37;19.97;;;0.00;99.90;;;0.65;92.14;98791.94;5205227;28;20215;-78
2020/12/26 06:45:30;;;;;;;21.07;18.20;;;-0.10;99.90;;;0.67;93.16;98789.59;5205494;28;20222;-76
2020/12/26 06:48:04;;;;;;;22.33;18.90;;;0.00;99.90;;;0.70;93.54;98787.41;5204250;28;20223;-77
2020/12/26 06:50:37;;;;;;;21.23;18.30;;;0.10;99.90;;;0.73;93.71;98787.75;5207813;28;20222;-77
2020/12/26 06:53:13;;;;;;;20.27;18.07;;;0.00;99.90;;;0.75;93.57;98787.94;5205149;28;20278;-77
2020/12/26 06:55:47;;;;;;;20.43;18.23;;;0.10;99.90;;;0.74;93.77;98789.53;5208456;28;20571;-78
2020/12/26 06:58:50;;;;;;;21.80;18.73;;;0.10;99.90;;;0.77;93.56;98786.44;5210100;28;20672;-78
2020/12/26 07:01:24;;;;;;;21.27;18.87;;;0.10;99.90;;;0.76;94.32;98790.59;5208151;28;20211;-77
2020/12/26 07:04:17;;;;;;;22.27;19.87;;;0.10;99.90;;;0.79;94.25;98790.94;5208082;28;20250;-79
2020/12/26 07:06:52;;;;;;;22.70;19.63;;;0.10;99.90;;;0.76;93.43;98794.75;5206217;28;20229;-77
2020/12/26 07:09:47;;;;;;;21.40;18.50;;;0.10;99.90;;;0.76;93.83;98792.22;5208890;28;20661;-78
2020/12/26 07:12:19;;;;;;;20.57;17.77;;;0.10;99.90;;;0.76;93.44;98798.16;5199587;28;20259;-78
2020/12/26 07:14:52;;;;;;;20.77;18.57;;;0.00;99.90;;;0.81;94.10;98796.16;5207076;28;20286;-78
2020/12/26 07:17:26;;;;;;;22.23;19.17;;;0.10;99.90;;;0.86;94.63;98798.44;5190154;28;20200;-78
2020/12/26 07:19:59;;;;;;;22.17;19.87;;;0.10;99.90;;;0.91;94.32;98801.44;5206061;28;20231;-78
2020/12/26 07:22:33;;;;;;;23.70;19.37;;;0.20;99.90;;;0.92;94.05;98805.75;5206783;28;20219;-82
2020/12/26 07:25:07;;;;;;;24.53;18.70;;;0.20;99.90;;;0.90;94.40;98809.72;5204232;28;20212;-74
2020/12/26 07:27:40;;;;;;;20.73;18.53;;;0.20;99.90;;;0.89;93.79;98807.94;5203126;28;20307;-76
2020/12/26 07:30:13;;;;;;;24.73;20.73;;;0.20;99.90;;;0.95;94.54;98807.72;5203222;28;20292;-76
2020/12/26 07:32:53;;;;;;;24.73;20.87;;;0.20;99.90;;;0.96;93.92;98800.31;5203601;28;20197;-78
2020/12/26 07:35:40;;;;;;;19.77;17.67;;;0.20;99.90;;;1.03;93.77;98807.81;5206319;28;20209;-77
2020/12/26 07:38:14;;;;;;;21.53;19.27;;;0.20;99.90;;;1.01;94.01;98804.25;5208706;28;20285;-76
2020/12/26 07:40:47;;;;;;;20.97;18.77;;;0.30;99.90;;;1.09;93.92;98800.94;5207159;28;20314;-76
2020/12/26 07:43:19;;;;;;;18.83;16.93;;;0.30;99.90;;;1.10;93.29;98797.69;5203372;28;20201;-76
2020/12/26 07:45:55;;;;;;;17.63;15.80;;;0.20;99.90;;;1.10;93.13;98802.72;5204306;28;20720;-77
2020/12/26 07:48:28;;;;;;;17.60;15.73;;;0.20;99.90;;;1.07;93.34;98798.97;5207089;28;20703;-77
2020/12/26 07:51:00;;;;;;;18.33;16.10;;;0.20;99.90;;;1.07;92.98;98814.09;5207446;28;20301;-77
2020/12/26 07:53:33;;;;;;;18.17;16.27;;;0.20;99.90;;;1.07;94.03;98809.03;5203806;28;20206;-77
2020/12/26 07:56:05;;;;;;;20.10;17.93;;;0.30;99.90;;;1.12;94.03;98820.50;5204962;28;20287;-77
2020/12/26 07:58:37;;;;;;;20.53;18.23;;;0.40;99.90;;;1.20;94.47;98817.19;5207006;28;20199;-78
2020/12/26 08:01:10;;;;;;;22.80;19.40;;;0.40;99.90;;;1.20;94.65;98814.66;5206173;28;20273;-77
2020/12/26 08:03:43;;;;;;;20.47;17.97;;;0.40;99.90;;;1.26;94.61;98810.31;5203603;28;20300;-76
2020/12/26 08:06:15;;;;;;;19.30;17.10;;;0.40;99.90;;;1.43;93.39;98813.72;5204830;28;20194;-77
2020/12/26 08:08:47;;;;;;;18.47;15.53;;;0.40;99.90;;;1.28;91.96;98815.50;5203316;28;20309;-77
2020/12/26 08:11:23;;;;;;;19.60;16.43;;;0.30;99.90;;;1.27;92.07;98813.72;5204779;28;20221;-77
2020/12/26 08:14:00;;;;;;;19.40;16.47;;;0.30;99.90;;;1.25;92.60;98811.03;5209298;28;20296;-78
2020/12/26 08:16:33;;;;;;;18.10;16.20;;;0.30;99.90;;;1.40;92.35;98809.25;5227002;28;20196;-77
2020/12/26 08:19:06;;;;;;;18.60;15.90;;;0.30;99.90;;;1.40;92.64;98805.84;5206787;28;20197;-76
2020/12/26 08:21:41;;;;;;;18.57;16.57;;;0.30;99.90;;;1.29;92.69;98793.00;5203942;28;20225;-76
2020/12/26 08:24:31;;;;;;;18.17;16.20;;;0.30;99.90;;;1.22;92.94;98803.13;5205030;28;20262;-76
2020/12/26 08:27:06;;;;;;;21.43;18.20;;;0.40;99.90;;;1.13;92.23;98790.47;5202341;28;20304;-75
2020/12/26 08:29:39;;;;;;;22.57;19.33;;;0.30;99.90;;;1.22;93.50;98800.63;5205162;28;20573;-77
2020/12/26 08:32:14;;;;;;;20.07;17.83;;;0.40;99.90;;;1.16;93.72;98804.09;5205282;28;20311;-78
2020/12/26 08:34:51;;;;;;;22.83;20.43;;;0.40;99.90;;;1.34;93.91;98807.00;5204705;28;20287;-78
2020/12/26 08:37:27;;;;;;;22.63;19.57;;;0.50;99.90;;;1.51;94.25;98811.28;5204877;28;20197;-77
2020/12/26 08:40:01;;;;;;;22.53;18.60;;;0.60;99.90;;;1.62;93.05;98802.38;5202342;28;20292;-78
2020/12/26 08:42:37;;;;;;;23.53;17.87;;;0.70;99.90;;;1.68;91.98;98795.47;5205072;28;20701;-77
2020/12/26 08:45:31;;;;;;;23.70;19.73;;;0.70;99.90;;;1.75;92.46;98795.41;5204439;28;20208;-78
2020/12/26 08:48:15;;;;;;;24.53;18.90;;;0.70;99.90;;;1.84;91.91;98792.06;5208696;28;20205;-77
2020/12/26 08:50:59;;;;;;;23.80;17.57;;;0.80;99.90;;;1.91;91.60;98794.47;5208896;28;20656;-77
2020/12/26 08:53:36;;;;;;;21.47;17.73;;;0.80;99.90;;;1.84;91.33;98798.00;5203918;28;20240;-75
2020/12/26 08:56:08;;;;;;;22.87;18.00;;;0.80;99.90;;;1.85;91.85;98799.78;5197677;28;20194;-77
2020/12/26 08:58:49;;;;;;;22.80;18.30;;;0.80;99.90;;;1.85;91.67;98788.81;5206432;28;20281;-76
2020/12/26 09:01:22;;;;;;;22.47;18.13;;;0.80;99.90;;;1.90;92.20;98800.28;5207093;28;20242;-77
2020/12/26 09:03:56;;;;;;;21.93;17.93;;;0.90;99.90;;;1.95;92.89;98796.63;5207269;28;20241;-77
2020/12/26 09:06:34;;;;;;;21.03;18.00;;;1.00;99.90;;;2.02;93.11;98799.03;5207457;28;20209;-77
2020/12/26 09:09:18;;;;;;;21.27;18.63;;;1.00;99.90;;;2.17;92.91;98809.81;5215399;28;20193;-77
2020/12/26 09:12:03;;;;;;;22.37;18.53;;;1.10;99.90;;;2.37;90.00;98804.31;5208006;28;20220;-76
2020/12/26 09:14:36;;;;;;;21.57;18.63;;;1.10;99.90;;;2.41;89.45;98811.50;5204632;28;20202;-76
2020/12/26 09:17:09;;;;;;;20.83;17.37;;;1.20;99.90;;;2.33;90.37;98819.88;5205913;28;20658;-77
2020/12/26 09:19:46;;;;;;;24.57;19.17;;;1.30;99.90;;;2.42;91.43;98815.78;5204290;28;20197;-77
2020/12/26 09:22:19;;;;;;;21.60;18.03;;;1.40;99.90;;;2.57;91.59;98809.78;5206237;28;20284;-75
2020/12/26 09:24:51;;;;;;;25.03;18.40;;;1.60;99.90;;;2.63;90.04;98817.09;5205260;28;20575;-76
2020/12/26 09:27:24;;;;;;;23.33;19.20;;;1.80;99.90;;;2.76;90.91;98822.69;5204532;28;20236;-77
2020/12/26 09:30:04;;;;;;;21.37;18.07;;;1.90;99.90;;;2.99;90.48;98821.63;5205131;28;20198;-76
2020/12/26 09:32:36;;;;;;;22.47;19.27;;;2.10;99.90;;;3.27;89.54;98826.19;5205602;28;20232;-76
2020/12/26 09:35:17;;;;;;;22.27;17.77;;;2.30;99.90;;;3.29;89.41;98837.34;5204147;28;20216;-77
2020/12/26 09:37:54;;;;;;;20.70;18.20;;;2.30;99.90;;;3.23;87.32;98841.75;5203652;28;20208;-76
2020/12/26 09:40:28;;;;;;;19.90;17.33;;;2.30;99.90;;;3.42;86.89;98842.00;5204440;28;20201;-76
2020/12/26 09:43:01;;;;;;;19.57;16.30;;;2.40;99.90;;;3.31;85.97;98837.50;5204521;28;20663;-76
2020/12/26 09:45:34;;;;;;;20.63;17.00;;;2.20;99.90;;;3.34;85.54;98841.22;5204523;28;20632;-76
2020/12/26 09:48:06;;;;;;;21.60;16.90;;;2.20;99.90;;;3.32;84.00;98842.72;5203389;28;20594;-76
2020/12/26 09:50:38;;;;;;;19.63;15.97;;;2.20;99.90;;;3.39;85.17;98836.63;5204604;28;20228;-76
2020/12/26 09:53:11;;;;;;;21.63;16.93;;;2.30;99.90;;;3.39;85.64;98835.00;5204411;28;20205;-75
2020/12/26 09:55:43;;;;;;;18.67;16.43;;;2.30;99.90;;;3.47;84.50;98825.66;5203935;28;20203;-76
2020/12/26 09:58:15;;;;;;;18.93;16.00;;;2.20;99.90;;;3.44;84.32;98832.94;5204456;28;20725;-76
2020/12/26 10:00:47;;;;;;;20.87;17.90;;;2.30;99.90;;;3.41;84.73;98831.75;5202934;28;21012;-76
2020/12/26 10:03:19;;;;;;;25.07;21.03;;;2.30;99.90;;;3.47;85.19;98830.72;5204023;28;20292;-77
2020/12/26 10:05:51;;;;;;;20.67;18.47;;;2.50;99.90;;;3.33;82.04;98836.03;5204765;28;20197;-76
2020/12/26 10:08:24;;;;;;;21.53;16.57;;;2.60;99.90;;;3.37;84.25;98833.94;5210623;28;20280;-76
2020/12/26 10:10:57;;;;;;;18.10;16.07;;;2.60;99.90;;;3.66;83.61;98827.47;5208702;28;20228;-76
2020/12/26 10:13:30;;;;;;;19.17;16.00;;;2.70;99.90;;;3.75;84.16;98825.84;5210062;28;20287;-75
2020/12/26 10:16:02;;;;;;;18.03;15.63;;;2.80;99.90;;;3.83;81.13;98828.44;5207976;28;20208;-76
2020/12/26 10:18:35;;;;;;;18.20;16.33;;;2.70;99.90;;;3.77;82.48;98839.53;5209746;28;20657;-75
2020/12/26 10:21:07;;;;;;;17.23;15.50;;;2.80;99.90;;;3.75;83.78;98833.44;5210578;28;20342;-75
2020/12/26 10:23:40;;;;;;;18.07;15.27;;;2.80;99.90;;;3.91;82.89;98821.56;5221546;28;20197;-75
2020/12/26 10:26:13;;;;;;;16.30;14.53;;;2.80;99.90;;;4.07;81.03;98822.34;5213749;28;20209;-73
2020/12/26 10:28:45;;;;;;;15.53;13.80;;;2.70;99.90;;;4.02;80.68;98813.41;5209768;28;20724;-74
2020/12/26 10:31:17;;;;;;;16.70;13.97;;;2.80;99.90;;;3.92;79.18;98812.34;5209781;28;20293;-74
2020/12/26 10:33:49;;;;;;;18.10;14.73;;;2.70;99.90;;;3.91;81.16;98815.63;5209686;28;20207;-74
2020/12/26 10:36:21;;;;;;;17.20;14.40;;;2.80;99.90;;;3.92;80.82;98817.41;5209225;28;20221;-74
2020/12/26 10:38:54;;;;;;;17.20;14.83;;;2.80;99.90;;;4.02;80.62;98808.34;5209079;28;20261;-74
2020/12/26 10:41:26;;;;;;;17.17;14.50;;;2.80;99.90;;;4.06;80.85;98807.00;5209187;28;20725;-74
2020/12/26 10:43:58;;;;;;;17.93;14.10;;;2.90;99.90;;;4.17;79.09;98808.94;5208589;28;20197;-74